createdAt,value
2022-11-05T00:03:01.902Z,14.08
2022-11-05T00:08:26.894Z,14.07
2022-11-05T00:13:48.518Z,14.09
2022-11-05T00:19:07.011Z,14.11
2022-11-05T00:24:28.567Z,14.08
2022-11-05T00:29:31.916Z,14.02
2022-11-05T00:34:34.894Z,13.96
2022-11-05T00:39:38.224Z,13.94
2022-11-05T00:44:59.463Z,13.99
2022-11-05T00:50:02.400Z,14.02
2022-11-05T00:55:06.757Z,14.02
2022-11-05T01:00:11.279Z,13.99
2022-11-05T01:05:14.797Z,13.92
2022-11-05T01:10:17.814Z,13.90
2022-11-05T01:15:21.897Z,13.92
2022-11-05T01:20:24.891Z,13.94
2022-11-05T01:25:28.168Z,13.97
2022-11-05T01:30:31.573Z,13.99
2022-11-05T01:35:34.623Z,14.00
2022-11-05T01:40:37.512Z,13.96
2022-11-05T01:45:40.807Z,13.91
2022-11-05T01:50:58.116Z,13.86
2022-11-05T01:56:09.815Z,13.86
2022-11-05T02:01:12.923Z,13.86
2022-11-05T02:06:17.449Z,13.88
2022-11-05T02:11:20.773Z,13.89
2022-11-05T02:16:30.086Z,13.85
2022-11-05T02:22:23.179Z,13.82
2022-11-05T02:27:51.067Z,13.75
2022-11-05T02:33:17.074Z,13.76
2022-11-05T02:38:47.848Z,13.84
2022-11-05T02:43:57.104Z,13.95
2022-11-05T02:49:24.893Z,14.00
2022-11-05T02:54:30.682Z,14.03
2022-11-05T02:59:33.544Z,14.01
2022-11-05T03:04:36.802Z,13.96
2022-11-05T03:10:18.171Z,13.87
2022-11-05T03:15:45.382Z,13.77
2022-11-05T03:21:01.038Z,13.76
2022-11-05T03:26:17.676Z,13.63
2022-11-05T03:31:23.102Z,13.57
2022-11-05T03:36:34.548Z,13.49
2022-11-05T03:41:43.354Z,13.39
2022-11-05T03:46:51.962Z,13.33
2022-11-05T03:52:01.422Z,13.24
2022-11-05T03:57:10.246Z,13.15
2022-11-05T04:02:15.644Z,13.12
2022-11-05T04:07:37.197Z,13.12
2022-11-05T04:12:58.882Z,13.12
2022-11-05T04:18:02.018Z,13.08
2022-11-05T04:23:25.579Z,13.04
2022-11-05T04:28:48.477Z,13.02
2022-11-05T04:33:51.490Z,13.03
2022-11-05T04:38:55.041Z,13.04
2022-11-05T04:44:00.570Z,13.00
2022-11-05T04:49:03.640Z,12.93
2022-11-05T04:54:07.179Z,12.91
2022-11-05T04:59:10.134Z,12.93
2022-11-05T05:04:13.120Z,12.96
2022-11-05T05:09:16.245Z,12.97
2022-11-05T05:14:19.196Z,12.95
2022-11-05T05:19:24.548Z,12.93
2022-11-05T05:24:27.871Z,12.94
2022-11-05T05:29:30.739Z,12.93
2022-11-05T05:34:33.853Z,12.89
2022-11-05T05:39:36.944Z,12.89
2022-11-05T05:44:39.891Z,12.84
2022-11-05T05:49:42.765Z,12.83
2022-11-05T05:54:45.657Z,12.87
2022-11-05T05:59:48.729Z,12.91
2022-11-05T06:04:51.678Z,12.92
2022-11-05T06:09:54.747Z,12.91
2022-11-05T06:14:58.583Z,12.87
2022-11-05T06:20:01.825Z,12.83
2022-11-05T06:25:07.253Z,12.82
2022-11-05T06:30:10.649Z,12.75
2022-11-05T06:35:13.921Z,12.71
2022-11-05T06:40:16.817Z,12.70
2022-11-05T06:45:20.099Z,12.72
2022-11-05T06:50:27.378Z,12.70
2022-11-05T06:55:31.850Z,12.68
2022-11-05T07:00:34.878Z,12.62
2022-11-05T07:05:44.039Z,12.55
2022-11-05T07:10:47.066Z,12.46
2022-11-05T07:15:50.003Z,12.45
2022-11-05T07:20:52.960Z,12.47
2022-11-05T07:25:55.940Z,12.47
2022-11-05T07:30:59.651Z,12.46
2022-11-05T07:36:02.641Z,12.45
2022-11-05T07:41:05.660Z,12.42
2022-11-05T07:46:13.544Z,12.42
2022-11-05T07:51:16.787Z,12.43
2022-11-05T07:56:19.696Z,12.41
2022-11-05T08:01:35.358Z,12.51
2022-11-05T08:06:38.507Z,12.63
2022-11-05T08:11:41.478Z,12.60
2022-11-05T08:16:44.789Z,12.55
2022-11-05T08:21:47.946Z,12.53
2022-11-05T08:26:51.014Z,12.48
2022-11-05T08:31:53.912Z,12.44
2022-11-05T08:36:56.904Z,12.44
2022-11-05T08:41:59.858Z,12.46
2022-11-05T08:47:02.940Z,12.48
2022-11-05T08:52:05.916Z,12.49
2022-11-05T08:57:09.041Z,12.49
2022-11-05T09:02:12.223Z,12.49
2022-11-05T09:07:15.458Z,12.45
2022-11-05T09:12:18.473Z,12.48
2022-11-05T09:17:22.044Z,12.51
2022-11-05T09:22:25.018Z,12.55
2022-11-05T09:27:28.144Z,12.59
2022-11-05T09:32:32.316Z,12.57
2022-11-05T09:37:36.933Z,12.53
2022-11-05T09:42:42.969Z,12.50
2022-11-05T09:47:52.354Z,12.57
2022-11-05T09:52:55.322Z,12.64
2022-11-05T09:58:01.303Z,12.68
2022-11-05T10:03:08.204Z,12.68
2022-11-05T10:08:18.667Z,12.65
2022-11-05T10:13:29.785Z,12.64
2022-11-05T10:18:47.421Z,12.62
2022-11-05T10:23:50.319Z,12.60
2022-11-05T10:28:53.932Z,12.64
2022-11-05T10:34:02.579Z,12.70
2022-11-05T10:39:17.779Z,12.77
2022-11-05T10:44:38.925Z,12.80
2022-11-05T10:49:59.162Z,12.78
2022-11-05T10:55:07.405Z,12.78
2022-11-05T11:00:19.150Z,12.80
2022-11-05T11:05:33.207Z,12.85
2022-11-05T11:10:54.238Z,12.84
2022-11-05T11:16:15.692Z,12.78
2022-11-05T11:21:23.089Z,12.72
2022-11-05T11:26:36.506Z,12.70
2022-11-05T11:31:40.475Z,12.66
2022-11-05T11:36:46.885Z,12.68
2022-11-05T11:41:57.524Z,12.70
2022-11-05T11:47:09.659Z,12.75
2022-11-05T11:52:30.203Z,12.76
2022-11-05T11:57:44.134Z,12.80
2022-11-05T12:03:02.062Z,12.81
2022-11-05T12:08:11.186Z,12.76
2022-11-05T12:13:14.197Z,12.75
2022-11-05T12:18:27.000Z,12.75
2022-11-05T12:23:44.638Z,12.75
2022-11-05T12:29:18.830Z,12.80
2022-11-05T12:34:37.252Z,12.79
2022-11-05T12:39:50.722Z,12.76
2022-11-05T12:45:02.251Z,12.76
2022-11-05T12:50:23.183Z,12.76
2022-11-05T12:55:31.738Z,12.75
2022-11-05T13:00:37.487Z,12.73
2022-11-05T13:05:47.896Z,12.71
2022-11-05T13:10:59.455Z,12.70
2022-11-05T13:16:10.185Z,12.72
2022-11-05T13:21:16.178Z,12.78
2022-11-05T13:26:52.773Z,12.86
2022-11-05T13:32:02.742Z,12.92
2022-11-05T13:37:26.716Z,12.95
2022-11-05T13:42:41.505Z,12.90
2022-11-05T13:48:25.477Z,12.83
2022-11-05T13:53:41.156Z,12.83
2022-11-05T13:58:52.887Z,12.81
2022-11-05T14:03:56.741Z,12.79
2022-11-05T14:09:04.637Z,12.81
2022-11-05T14:14:16.413Z,12.80
2022-11-05T14:19:32.469Z,12.78
2022-11-05T14:24:38.525Z,12.79
2022-11-05T14:29:43.889Z,12.83
2022-11-05T14:35:16.081Z,12.90
2022-11-05T14:40:21.936Z,12.97
2022-11-05T14:45:33.693Z,12.96
2022-11-05T14:50:36.860Z,12.89
2022-11-05T14:55:42.694Z,12.82
2022-11-05T15:00:47.585Z,12.80
2022-11-05T15:05:51.897Z,12.81
2022-11-05T15:11:03.893Z,12.83
2022-11-05T15:16:07.759Z,12.83
2022-11-05T15:21:16.315Z,12.82
2022-11-05T15:26:30.193Z,12.83
2022-11-05T15:31:41.877Z,12.82
2022-11-05T15:36:57.386Z,12.77
2022-11-05T15:42:04.930Z,12.78
2022-11-05T15:47:24.409Z,12.84
2022-11-05T15:52:36.752Z,12.91
2022-11-05T15:57:51.972Z,12.95
2022-11-05T16:03:15.244Z,12.95
2022-11-05T16:08:23.327Z,12.88
2022-11-05T16:13:49.865Z,12.86
2022-11-05T16:19:40.187Z,12.88
2022-11-05T16:24:45.094Z,12.89
2022-11-05T16:29:51.681Z,12.87
2022-11-05T16:34:58.041Z,12.84
2022-11-05T16:40:02.124Z,12.84
2022-11-05T16:45:06.809Z,12.77
2022-11-05T16:50:15.644Z,12.72
2022-11-05T16:55:19.964Z,12.74
2022-11-05T17:00:24.762Z,12.77
2022-11-05T17:05:30.433Z,12.76
2022-11-05T17:10:33.553Z,12.74
2022-11-05T17:15:36.690Z,12.69
2022-11-05T17:20:44.018Z,12.64
2022-11-05T17:25:51.289Z,12.59
2022-11-05T17:30:55.556Z,12.53
2022-11-05T17:35:58.823Z,12.54
2022-11-05T17:41:02.300Z,12.58
2022-11-05T17:46:10.155Z,12.65
2022-11-05T17:51:18.485Z,12.66
2022-11-05T17:56:32.600Z,12.62
2022-11-05T18:01:42.580Z,12.59
2022-11-05T18:06:45.705Z,12.55
2022-11-05T18:11:48.664Z,12.53
2022-11-05T18:16:52.400Z,12.53
2022-11-05T18:21:57.901Z,12.54
2022-11-05T18:27:01.004Z,12.57
2022-11-05T18:32:04.798Z,12.58
2022-11-05T18:37:07.684Z,12.58
2022-11-05T18:42:11.218Z,12.52
2022-11-05T18:47:14.314Z,12.49
2022-11-05T18:52:17.657Z,12.43
2022-11-05T18:57:20.629Z,12.44
2022-11-05T19:02:23.897Z,12.47
2022-11-05T19:07:27.117Z,12.49
2022-11-05T19:12:30.025Z,12.47
2022-11-05T19:17:33.808Z,12.42
2022-11-05T19:22:36.734Z,12.35
2022-11-05T19:27:39.594Z,12.36
2022-11-05T19:32:42.613Z,12.35
2022-11-05T19:37:45.853Z,12.33
2022-11-05T19:42:48.703Z,12.34
2022-11-05T19:47:51.606Z,12.37
2022-11-05T19:52:56.135Z,12.40
2022-11-05T19:57:59.162Z,12.36
2022-11-05T20:03:02.489Z,12.36
2022-11-05T20:08:05.693Z,12.34
2022-11-05T20:13:08.634Z,12.29
2022-11-05T20:18:11.759Z,12.30
2022-11-05T20:23:15.020Z,12.34
2022-11-05T20:28:18.238Z,12.38
2022-11-05T20:33:22.098Z,12.49
2022-11-05T20:38:25.044Z,12.57
2022-11-05T20:43:36.586Z,12.51
2022-11-05T20:48:40.522Z,12.47
2022-11-05T20:53:43.863Z,12.38
2022-11-05T20:58:47.481Z,12.37
2022-11-05T21:03:50.478Z,12.35
2022-11-05T21:08:53.958Z,12.32
2022-11-05T21:13:57.342Z,12.31
2022-11-05T21:19:00.194Z,12.30
2022-11-05T21:24:03.481Z,12.28
2022-11-05T21:29:07.790Z,12.23
2022-11-05T21:34:11.244Z,12.19
2022-11-05T21:39:14.189Z,12.22
2022-11-05T21:44:17.229Z,12.28
2022-11-05T21:49:20.145Z,12.27
2022-11-05T21:54:41.729Z,12.27
2022-11-05T21:59:55.264Z,12.27
2022-11-05T22:05:00.045Z,12.22
2022-11-05T22:10:08.105Z,12.18
2022-11-05T22:15:12.864Z,12.15
2022-11-05T22:20:16.674Z,12.13
2022-11-05T22:25:20.198Z,12.18
2022-11-05T22:30:23.112Z,12.22
2022-11-05T22:35:26.228Z,12.24
2022-11-05T22:40:29.142Z,12.26
2022-11-05T22:45:35.717Z,12.24
2022-11-05T22:50:38.875Z,12.21
2022-11-05T22:55:44.156Z,12.16
2022-11-05T23:00:47.146Z,12.15
2022-11-05T23:05:57.208Z,12.14
2022-11-05T23:11:29.323Z,12.19
2022-11-05T23:17:04.171Z,12.27
2022-11-05T23:22:51.932Z,12.30
2022-11-05T23:27:55.509Z,12.27
2022-11-05T23:32:58.425Z,12.24
2022-11-05T23:38:20.159Z,12.21
2022-11-05T23:43:41.800Z,12.17
2022-11-05T23:48:44.753Z,12.15
2022-11-05T23:53:47.664Z,12.15
2022-11-05T23:58:50.550Z,12.19
